sensor_id;sensor_type;location;lat;lon;timestamp;P1;durP1;ratioP1;P2;durP2;ratioP2
9657;SDS011;4867;48.112;11.622;2023-06-19T00:01:47;12.20;;;10.97;;
9657;SDS011;4867;48.112;11.622;2023-06-19T00:04:15;12.13;;;10.97;;
9657;SDS011;4867;48.112;11.622;2023-06-19T00:06:43;12.40;;;11.30;;
9657;SDS011;4867;48.112;11.622;2023-06-19T00:09:10;11.93;;;10.83;;
9657;SDS011;4867;48.112;11.622;2023-06-19T00:11:37;12.90;;;11.77;;
9657;SDS011;4867;48.112;11.622;2023-06-19T00:14:06;13.20;;;11.33;;
9657;SDS011;4867;48.112;11.622;2023-06-19T00:16:33;13.30;;;11.33;;
9657;SDS011;4867;48.112;11.622;2023-06-19T00:19:01;12.33;;;11.17;;
9657;SDS011;4867;48.112;11.622;2023-06-19T00:21:29;12.00;;;10.83;;
9657;SDS011;4867;48.112;11.622;2023-06-19T00:23:57;12.53;;;11.23;;
9657;SDS011;4867;48.112;11.622;2023-06-19T00:26:24;12.30;;;11.30;;
9657;SDS011;4867;48.112;11.622;2023-06-19T00:28:52;12.03;;;10.83;;
9657;SDS011;4867;48.112;11.622;2023-06-19T00:31:21;12.23;;;10.93;;
9657;SDS011;4867;48.112;11.622;2023-06-19T00:33:49;11.90;;;10.80;;
9657;SDS011;4867;48.112;11.622;2023-06-19T00:36:17;12.17;;;11.07;;
9657;SDS011;4867;48.112;11.622;2023-06-19T00:38:47;12.50;;;11.50;;
9657;SDS011;4867;48.112;11.622;2023-06-19T00:41:15;13.07;;;10.33;;
9657;SDS011;4867;48.112;11.622;2023-06-19T00:43:46;11.50;;;10.50;;
9657;SDS011;4867;48.112;11.622;2023-06-19T00:46:13;11.73;;;10.63;;
9657;SDS011;4867;48.112;11.622;2023-06-19T00:48:40;11.47;;;10.53;;
9657;SDS011;4867;48.112;11.622;2023-06-19T00:51:08;12.27;;;11.17;;
9657;SDS011;4867;48.112;11.622;2023-06-19T00:53:35;11.70;;;10.70;;
9657;SDS011;4867;48.112;11.622;2023-06-19T00:56:04;11.43;;;10.43;;
9657;SDS011;4867;48.112;11.622;2023-06-19T00:58:32;11.20;;;10.20;;
9657;SDS011;4867;48.112;11.622;2023-06-19T01:00:59;11.27;;;10.27;;
9657;SDS011;4867;48.112;11.622;2023-06-19T01:03:36;11.47;;;10.37;;
9657;SDS011;4867;48.112;11.622;2023-06-19T01:06:12;12.40;;;11.40;;
9657;SDS011;4867;48.112;11.622;2023-06-19T01:11:32;11.97;;;10.87;;
9657;SDS011;4867;48.112;11.622;2023-06-19T01:14:08;11.97;;;10.97;;
9657;SDS011;4867;48.112;11.622;2023-06-19T01:16:41;11.77;;;10.63;;
9657;SDS011;4867;48.112;11.622;2023-06-19T01:19:10;12.17;;;11.00;;
9657;SDS011;4867;48.112;11.622;2023-06-19T01:21:42;11.40;;;10.30;;
9657;SDS011;4867;48.112;11.622;2023-06-19T01:24:11;11.87;;;10.93;;
9657;SDS011;4867;48.112;11.622;2023-06-19T01:26:39;11.70;;;10.60;;
9657;SDS011;4867;48.112;11.622;2023-06-19T01:29:07;11.27;;;10.33;;
9657;SDS011;4867;48.112;11.622;2023-06-19T01:31:46;12.10;;;10.53;;
9657;SDS011;4867;48.112;11.622;2023-06-19T01:34:23;12.50;;;11.20;;
9657;SDS011;4867;48.112;11.622;2023-06-19T01:36:54;12.17;;;10.43;;
9657;SDS011;4867;48.112;11.622;2023-06-19T01:39:23;11.77;;;10.77;;
9657;SDS011;4867;48.112;11.622;2023-06-19T01:41:52;12.27;;;11.17;;
9657;SDS011;4867;48.112;11.622;2023-06-19T01:44:20;12.13;;;11.13;;
9657;SDS011;4867;48.112;11.622;2023-06-19T01:46:49;11.40;;;10.40;;
9657;SDS011;4867;48.112;11.622;2023-06-19T01:49:17;12.37;;;11.10;;
9657;SDS011;4867;48.112;11.622;2023-06-19T01:51:45;11.50;;;10.50;;
9657;SDS011;4867;48.112;11.622;2023-06-19T01:54:13;11.70;;;10.70;;
9657;SDS011;4867;48.112;11.622;2023-06-19T01:56:40;11.83;;;10.83;;
9657;SDS011;4867;48.112;11.622;2023-06-19T01:59:08;12.40;;;10.73;;
9657;SDS011;4867;48.112;11.622;2023-06-19T02:01:35;11.70;;;10.60;;
9657;SDS011;4867;48.112;11.622;2023-06-19T02:04:02;11.23;;;10.33;;
9657;SDS011;4867;48.112;11.622;2023-06-19T02:06:31;11.37;;;10.30;;
9657;SDS011;4867;48.112;11.622;2023-06-19T02:08:58;12.73;;;11.43;;
9657;SDS011;4867;48.112;11.622;2023-06-19T02:11:26;12.17;;;10.60;;
9657;SDS011;4867;48.112;11.622;2023-06-19T02:13:54;10.97;;;9.87;;
9657;SDS011;4867;48.112;11.622;2023-06-19T02:16:21;12.00;;;10.73;;
9657;SDS011;4867;48.112;11.622;2023-06-19T02:18:48;11.30;;;10.40;;
9657;SDS011;4867;48.112;11.622;2023-06-19T02:21:16;11.93;;;10.83;;
9657;SDS011;4867;48.112;11.622;2023-06-19T02:23:43;11.43;;;10.50;;
9657;SDS011;4867;48.112;11.622;2023-06-19T02:26:11;10.97;;;10.07;;
9657;SDS011;4867;48.112;11.622;2023-06-19T02:28:38;11.87;;;10.77;;
9657;SDS011;4867;48.112;11.622;2023-06-19T02:31:05;11.60;;;10.60;;
9657;SDS011;4867;48.112;11.622;2023-06-19T02:33:33;11.17;;;10.27;;
9657;SDS011;4867;48.112;11.622;2023-06-19T02:36:00;11.03;;;9.93;;
9657;SDS011;4867;48.112;11.622;2023-06-19T02:38:28;11.20;;;10.20;;
9657;SDS011;4867;48.112;11.622;2023-06-19T02:40:56;12.10;;;10.90;;
9657;SDS011;4867;48.112;11.622;2023-06-19T02:43:29;11.93;;;10.83;;
9657;SDS011;4867;48.112;11.622;2023-06-19T02:45:57;11.73;;;10.53;;
9657;SDS011;4867;48.112;11.622;2023-06-19T02:48:24;12.50;;;11.40;;
9657;SDS011;4867;48.112;11.622;2023-06-19T02:50:53;12.23;;;11.23;;
9657;SDS011;4867;48.112;11.622;2023-06-19T02:53:20;12.03;;;10.87;;
9657;SDS011;4867;48.112;11.622;2023-06-19T02:55:47;13.13;;;11.97;;
9657;SDS011;4867;48.112;11.622;2023-06-19T02:58:15;12.90;;;11.80;;
9657;SDS011;4867;48.112;11.622;2023-06-19T03:00:42;12.80;;;11.60;;
9657;SDS011;4867;48.112;11.622;2023-06-19T03:03:10;14.10;;;11.07;;
9657;SDS011;4867;48.112;11.622;2023-06-19T03:05:38;12.33;;;11.23;;
9657;SDS011;4867;48.112;11.622;2023-06-19T03:08:06;13.13;;;11.80;;
9657;SDS011;4867;48.112;11.622;2023-06-19T03:10:34;12.70;;;11.60;;
9657;SDS011;4867;48.112;11.622;2023-06-19T03:13:01;13.03;;;11.83;;
9657;SDS011;4867;48.112;11.622;2023-06-19T03:15:29;12.47;;;11.47;;
9657;SDS011;4867;48.112;11.622;2023-06-19T03:17:56;13.57;;;12.37;;
9657;SDS011;4867;48.112;11.622;2023-06-19T03:20:24;12.80;;;11.77;;
9657;SDS011;4867;48.112;11.622;2023-06-19T03:22:56;13.90;;;12.50;;
9657;SDS011;4867;48.112;11.622;2023-06-19T03:25:24;13.40;;;12.20;;
9657;SDS011;4867;48.112;11.622;2023-06-19T03:27:53;11.97;;;11.00;;
9657;SDS011;4867;48.112;11.622;2023-06-19T03:30:21;12.83;;;11.63;;
9657;SDS011;4867;48.112;11.622;2023-06-19T03:32:51;12.40;;;11.30;;
9657;SDS011;4867;48.112;11.622;2023-06-19T03:35:40;12.10;;;11.00;;
9657;SDS011;4867;48.112;11.622;2023-06-19T03:38:14;12.67;;;11.37;;
9657;SDS011;4867;48.112;11.622;2023-06-19T03:40:42;12.50;;;11.40;;
9657;SDS011;4867;48.112;11.622;2023-06-19T03:43:11;12.67;;;11.33;;
9657;SDS011;4867;48.112;11.622;2023-06-19T03:45:39;12.47;;;11.23;;
9657;SDS011;4867;48.112;11.622;2023-06-19T03:48:07;12.57;;;11.37;;
9657;SDS011;4867;48.112;11.622;2023-06-19T03:50:34;12.10;;;10.90;;
9657;SDS011;4867;48.112;11.622;2023-06-19T03:53:02;12.70;;;11.47;;
9657;SDS011;4867;48.112;11.622;2023-06-19T03:55:30;11.90;;;10.90;;
9657;SDS011;4867;48.112;11.622;2023-06-19T03:57:57;12.17;;;11.17;;
9657;SDS011;4867;48.112;11.622;2023-06-19T04:00:25;11.77;;;10.77;;
9657;SDS011;4867;48.112;11.622;2023-06-19T04:02:52;12.10;;;10.90;;
9657;SDS011;4867;48.112;11.622;2023-06-19T04:05:20;11.67;;;10.63;;
9657;SDS011;4867;48.112;11.622;2023-06-19T04:07:48;12.30;;;11.20;;
9657;SDS011;4867;48.112;11.622;2023-06-19T04:10:15;12.37;;;11.33;;
9657;SDS011;4867;48.112;11.622;2023-06-19T04:12:43;11.73;;;10.70;;
9657;SDS011;4867;48.112;11.622;2023-06-19T04:15:11;11.40;;;10.30;;
9657;SDS011;4867;48.112;11.622;2023-06-19T04:17:39;11.57;;;10.57;;
9657;SDS011;4867;48.112;11.622;2023-06-19T04:20:06;11.93;;;10.73;;
9657;SDS011;4867;48.112;11.622;2023-06-19T04:22:39;12.63;;;11.27;;
9657;SDS011;4867;48.112;11.622;2023-06-19T04:25:07;12.53;;;11.27;;
9657;SDS011;4867;48.112;11.622;2023-06-19T04:27:36;11.77;;;10.53;;
9657;SDS011;4867;48.112;11.622;2023-06-19T04:30:04;11.87;;;10.70;;
9657;SDS011;4867;48.112;11.622;2023-06-19T04:32:33;12.27;;;11.17;;
9657;SDS011;4867;48.112;11.622;2023-06-19T04:35:02;12.73;;;11.53;;
9657;SDS011;4867;48.112;11.622;2023-06-19T04:37:29;12.80;;;11.57;;
9657;SDS011;4867;48.112;11.622;2023-06-19T04:39:57;12.27;;;11.27;;
9657;SDS011;4867;48.112;11.622;2023-06-19T04:42:24;12.40;;;11.30;;
9657;SDS011;4867;48.112;11.622;2023-06-19T04:44:53;12.67;;;11.40;;
9657;SDS011;4867;48.112;11.622;2023-06-19T04:47:22;12.03;;;11.07;;
9657;SDS011;4867;48.112;11.622;2023-06-19T04:49:52;13.30;;;12.10;;
9657;SDS011;4867;48.112;11.622;2023-06-19T04:52:19;12.40;;;11.10;;
9657;SDS011;4867;48.112;11.622;2023-06-19T04:54:47;12.47;;;11.27;;
9657;SDS011;4867;48.112;11.622;2023-06-19T04:57:16;12.20;;;11.17;;
9657;SDS011;4867;48.112;11.622;2023-06-19T04:59:43;12.60;;;11.40;;
9657;SDS011;4867;48.112;11.622;2023-06-19T05:02:11;12.47;;;11.27;;
9657;SDS011;4867;48.112;11.622;2023-06-19T05:04:38;13.33;;;11.93;;
9657;SDS011;4867;48.112;11.622;2023-06-19T05:07:09;13.30;;;12.00;;
9657;SDS011;4867;48.112;11.622;2023-06-19T05:09:37;12.60;;;10.97;;
9657;SDS011;4867;48.112;11.622;2023-06-19T05:12:05;13.40;;;12.00;;
9657;SDS011;4867;48.112;11.622;2023-06-19T05:14:32;13.20;;;12.00;;
9657;SDS011;4867;48.112;11.622;2023-06-19T05:16:59;12.60;;;11.30;;
9657;SDS011;4867;48.112;11.622;2023-06-19T05:19:27;12.87;;;11.57;;
9657;SDS011;4867;48.112;11.622;2023-06-19T05:21:54;12.67;;;11.40;;
9657;SDS011;4867;48.112;11.622;2023-06-19T05:24:21;12.37;;;11.17;;
9657;SDS011;4867;48.112;11.622;2023-06-19T05:26:49;14.40;;;11.27;;
9657;SDS011;4867;48.112;11.622;2023-06-19T05:29:16;17.87;;;11.23;;
9657;SDS011;4867;48.112;11.622;2023-06-19T05:31:44;12.27;;;10.97;;
9657;SDS011;4867;48.112;11.622;2023-06-19T05:34:11;15.10;;;11.37;;
9657;SDS011;4867;48.112;11.622;2023-06-19T05:36:38;14.60;;;11.10;;
9657;SDS011;4867;48.112;11.622;2023-06-19T05:39:06;12.43;;;11.17;;
9657;SDS011;4867;48.112;11.622;2023-06-19T05:41:33;12.03;;;10.93;;
9657;SDS011;4867;48.112;11.622;2023-06-19T05:44:01;12.73;;;11.43;;
9657;SDS011;4867;48.112;11.622;2023-06-19T05:46:28;13.77;;;11.93;;
9657;SDS011;4867;48.112;11.622;2023-06-19T05:48:55;11.83;;;10.83;;
9657;SDS011;4867;48.112;11.622;2023-06-19T05:51:23;11.77;;;10.77;;
9657;SDS011;4867;48.112;11.622;2023-06-19T05:53:50;12.17;;;11.07;;
9657;SDS011;4867;48.112;11.622;2023-06-19T05:56:18;13.70;;;11.20;;
9657;SDS011;4867;48.112;11.622;2023-06-19T05:58:46;12.70;;;11.30;;
9657;SDS011;4867;48.112;11.622;2023-06-19T06:01:13;12.53;;;11.23;;
9657;SDS011;4867;48.112;11.622;2023-06-19T06:03:41;12.13;;;10.93;;
9657;SDS011;4867;48.112;11.622;2023-06-19T06:06:08;12.13;;;10.93;;
9657;SDS011;4867;48.112;11.622;2023-06-19T06:08:35;11.87;;;10.77;;
9657;SDS011;4867;48.112;11.622;2023-06-19T06:11:02;11.60;;;10.43;;
9657;SDS011;4867;48.112;11.622;2023-06-19T06:13:30;12.73;;;11.47;;
9657;SDS011;4867;48.112;11.622;2023-06-19T06:15:57;11.93;;;10.73;;
9657;SDS011;4867;48.112;11.622;2023-06-19T06:18:25;12.10;;;11.00;;
9657;SDS011;4867;48.112;11.622;2023-06-19T06:20:52;12.37;;;11.27;;
9657;SDS011;4867;48.112;11.622;2023-06-19T06:23:19;11.80;;;10.70;;
9657;SDS011;4867;48.112;11.622;2023-06-19T06:25:47;13.33;;;11.20;;
9657;SDS011;4867;48.112;11.622;2023-06-19T06:28:14;11.77;;;10.63;;
9657;SDS011;4867;48.112;11.622;2023-06-19T06:30:42;11.93;;;10.83;;
9657;SDS011;4867;48.112;11.622;2023-06-19T06:33:09;11.80;;;10.70;;
9657;SDS011;4867;48.112;11.622;2023-06-19T06:35:37;11.43;;;10.43;;
9657;SDS011;4867;48.112;11.622;2023-06-19T06:38:04;13.03;;;10.80;;
9657;SDS011;4867;48.112;11.622;2023-06-19T06:40:32;13.10;;;10.97;;
9657;SDS011;4867;48.112;11.622;2023-06-19T06:42:59;11.83;;;10.80;;
9657;SDS011;4867;48.112;11.622;2023-06-19T06:45:26;13.57;;;11.00;;
9657;SDS011;4867;48.112;11.622;2023-06-19T06:47:54;10.80;;;9.80;;
9657;SDS011;4867;48.112;11.622;2023-06-19T06:50:21;11.60;;;10.47;;
9657;SDS011;4867;48.112;11.622;2023-06-19T06:52:49;11.03;;;9.90;;
9657;SDS011;4867;48.112;11.622;2023-06-19T06:55:17;12.30;;;10.43;;
9657;SDS011;4867;48.112;11.622;2023-06-19T06:57:44;10.77;;;9.73;;
9657;SDS011;4867;48.112;11.622;2023-06-19T07:00:11;10.97;;;9.77;;
9657;SDS011;4867;48.112;11.622;2023-06-19T07:02:39;10.23;;;9.30;;
9657;SDS011;4867;48.112;11.622;2023-06-19T07:05:08;9.73;;;8.73;;
9657;SDS011;4867;48.112;11.622;2023-06-19T07:07:36;10.02;;;9.02;;
9657;SDS011;4867;48.112;11.622;2023-06-19T07:10:04;10.13;;;8.87;;
9657;SDS011;4867;48.112;11.622;2023-06-19T07:12:32;9.43;;;8.30;;
9657;SDS011;4867;48.112;11.622;2023-06-19T07:15:00;9.50;;;8.67;;
9657;SDS011;4867;48.112;11.622;2023-06-19T07:17:27;9.20;;;8.40;;
9657;SDS011;4867;48.112;11.622;2023-06-19T07:19:55;9.37;;;8.47;;
9657;SDS011;4867;48.112;11.622;2023-06-19T07:22:22;9.60;;;8.40;;
9657;SDS011;4867;48.112;11.622;2023-06-19T07:24:49;11.20;;;9.07;;
9657;SDS011;4867;48.112;11.622;2023-06-19T07:27:16;9.10;;;8.20;;
9657;SDS011;4867;48.112;11.622;2023-06-19T07:29:44;8.45;;;7.82;;
9657;SDS011;4867;48.112;11.622;2023-06-19T07:32:11;8.68;;;7.88;;
9657;SDS011;4867;48.112;11.622;2023-06-19T07:34:39;8.48;;;7.70;;
9657;SDS011;4867;48.112;11.622;2023-06-19T07:37:06;9.35;;;7.70;;
9657;SDS011;4867;48.112;11.622;2023-06-19T07:39:33;8.93;;;8.23;;
9657;SDS011;4867;48.112;11.622;2023-06-19T07:42:00;7.80;;;7.20;;
9657;SDS011;4867;48.112;11.622;2023-06-19T07:44:28;8.52;;;7.82;;
9657;SDS011;4867;48.112;11.622;2023-06-19T07:46:55;9.32;;;7.00;;
9657;SDS011;4867;48.112;11.622;2023-06-19T07:49:22;7.75;;;7.07;;
9657;SDS011;4867;48.112;11.622;2023-06-19T07:51:50;7.75;;;7.05;;
9657;SDS011;4867;48.112;11.622;2023-06-19T07:54:17;9.18;;;7.22;;
9657;SDS011;4867;48.112;11.622;2023-06-19T07:56:44;6.93;;;6.35;;
9657;SDS011;4867;48.112;11.622;2023-06-19T07:59:12;6.45;;;5.95;;
9657;SDS011;4867;48.112;11.622;2023-06-19T08:01:40;6.82;;;6.03;;
9657;SDS011;4867;48.112;11.622;2023-06-19T08:04:08;6.82;;;6.15;;
9657;SDS011;4867;48.112;11.622;2023-06-19T08:06:35;7.18;;;6.57;;
9657;SDS011;4867;48.112;11.622;2023-06-19T08:09:03;6.90;;;6.30;;
9657;SDS011;4867;48.112;11.622;2023-06-19T08:11:30;7.50;;;6.50;;
9657;SDS011;4867;48.112;11.622;2023-06-19T08:13:57;6.15;;;5.70;;
9657;SDS011;4867;48.112;11.622;2023-06-19T08:16:25;6.57;;;6.07;;
9657;SDS011;4867;48.112;11.622;2023-06-19T08:18:53;6.95;;;5.93;;
9657;SDS011;4867;48.112;11.622;2023-06-19T08:21:20;6.20;;;5.70;;
9657;SDS011;4867;48.112;11.622;2023-06-19T08:23:48;6.10;;;5.70;;
9657;SDS011;4867;48.112;11.622;2023-06-19T08:26:15;6.63;;;5.88;;
9657;SDS011;4867;48.112;11.622;2023-06-19T08:28:43;6.55;;;5.95;;
9657;SDS011;4867;48.112;11.622;2023-06-19T08:31:11;7.20;;;6.50;;
9657;SDS011;4867;48.112;11.622;2023-06-19T08:33:38;6.47;;;5.97;;
9657;SDS011;4867;48.112;11.622;2023-06-19T08:36:06;7.35;;;6.35;;
9657;SDS011;4867;48.112;11.622;2023-06-19T08:38:33;7.20;;;6.50;;
9657;SDS011;4867;48.112;11.622;2023-06-19T08:41:00;7.43;;;6.68;;
9657;SDS011;4867;48.112;11.622;2023-06-19T08:43:28;9.38;;;8.57;;
9657;SDS011;4867;48.112;11.622;2023-06-19T08:45:59;7.07;;;6.50;;
9657;SDS011;4867;48.112;11.622;2023-06-19T08:48:40;7.15;;;6.65;;
9657;SDS011;4867;48.112;11.622;2023-06-19T08:51:08;7.00;;;6.47;;
9657;SDS011;4867;48.112;11.622;2023-06-19T08:53:59;6.82;;;6.22;;
9657;SDS011;4867;48.112;11.622;2023-06-19T08:56:29;7.18;;;6.57;;
9657;SDS011;4867;48.112;11.622;2023-06-19T09:01:46;7.95;;;6.90;;
9657;SDS011;4867;48.112;11.622;2023-06-19T09:04:28;8.38;;;7.53;;
9657;SDS011;4867;48.112;11.622;2023-06-19T09:06:56;15.13;;;13.45;;
9657;SDS011;4867;48.112;11.622;2023-06-19T09:09:29;11.00;;;9.77;;
9657;SDS011;4867;48.112;11.622;2023-06-19T09:11:58;10.82;;;9.82;;
9657;SDS011;4867;48.112;11.622;2023-06-19T09:14:38;8.15;;;7.35;;
9657;SDS011;4867;48.112;11.622;2023-06-19T09:17:09;6.55;;;6.05;;
9657;SDS011;4867;48.112;11.622;2023-06-19T09:19:48;8.07;;;6.60;;
9657;SDS011;4867;48.112;11.622;2023-06-19T09:22:17;5.70;;;5.30;;
9657;SDS011;4867;48.112;11.622;2023-06-19T09:24:45;7.18;;;4.32;;
9657;SDS011;4867;48.112;11.622;2023-06-19T09:27:15;4.53;;;4.22;;
9657;SDS011;4867;48.112;11.622;2023-06-19T09:29:48;3.67;;;3.35;;
9657;SDS011;4867;48.112;11.622;2023-06-19T09:32:20;4.22;;;3.67;;
9657;SDS011;4867;48.112;11.622;2023-06-19T09:34:51;3.83;;;3.47;;
9657;SDS011;4867;48.112;11.622;2023-06-19T09:37:21;5.95;;;4.05;;
9657;SDS011;4867;48.112;11.622;2023-06-19T09:39:58;4.20;;;3.90;;
9657;SDS011;4867;48.112;11.622;2023-06-19T09:42:31;4.30;;;3.90;;
9657;SDS011;4867;48.112;11.622;2023-06-19T09:45:00;6.72;;;4.13;;
9657;SDS011;4867;48.112;11.622;2023-06-19T09:47:32;4.55;;;3.88;;
9657;SDS011;4867;48.112;11.622;2023-06-19T09:50:05;6.35;;;4.45;;
9657;SDS011;4867;48.112;11.622;2023-06-19T09:52:34;6.10;;;4.55;;
9657;SDS011;4867;48.112;11.622;2023-06-19T09:55:04;5.47;;;4.80;;
9657;SDS011;4867;48.112;11.622;2023-06-19T09:57:33;5.05;;;4.65;;
9657;SDS011;4867;48.112;11.622;2023-06-19T10:00:03;5.95;;;5.40;;
9657;SDS011;4867;48.112;11.622;2023-06-19T10:02:40;6.10;;;5.60;;
9657;SDS011;4867;48.112;11.622;2023-06-19T10:05:09;5.47;;;5.03;;
9657;SDS011;4867;48.112;11.622;2023-06-19T10:07:42;5.65;;;5.25;;
9657;SDS011;4867;48.112;11.622;2023-06-19T10:10:12;7.82;;;5.20;;
9657;SDS011;4867;48.112;11.622;2023-06-19T10:12:57;6.07;;;5.55;;
9657;SDS011;4867;48.112;11.622;2023-06-19T10:15:26;6.57;;;5.97;;
9657;SDS011;4867;48.112;11.622;2023-06-19T10:18:00;7.55;;;6.50;;
9657;SDS011;4867;48.112;11.622;2023-06-19T10:20:32;8.05;;;6.35;;
9657;SDS011;4867;48.112;11.622;2023-06-19T10:23:17;7.50;;;6.80;;
9657;SDS011;4867;48.112;11.622;2023-06-19T10:25:47;6.90;;;6.30;;
9657;SDS011;4867;48.112;11.622;2023-06-19T10:28:25;7.10;;;6.40;;
9657;SDS011;4867;48.112;11.622;2023-06-19T10:33:35;7.45;;;6.40;;
9657;SDS011;4867;48.112;11.622;2023-06-19T10:36:17;7.05;;;6.35;;
9657;SDS011;4867;48.112;11.622;2023-06-19T10:38:48;7.13;;;6.53;;
9657;SDS011;4867;48.112;11.622;2023-06-19T10:41:16;7.28;;;6.68;;
9657;SDS011;4867;48.112;11.622;2023-06-19T10:43:55;7.63;;;6.75;;
9657;SDS011;4867;48.112;11.622;2023-06-19T10:46:24;7.70;;;6.90;;
9657;SDS011;4867;48.112;11.622;2023-06-19T10:48:57;7.85;;;7.18;;
9657;SDS011;4867;48.112;11.622;2023-06-19T10:51:34;7.40;;;6.72;;
9657;SDS011;4867;48.112;11.622;2023-06-19T10:54:06;7.32;;;6.65;;
9657;SDS011;4867;48.112;11.622;2023-06-19T10:56:34;9.48;;;6.93;;
9657;SDS011;4867;48.112;11.622;2023-06-19T10:59:09;8.07;;;7.30;;
9657;SDS011;4867;48.112;11.622;2023-06-19T11:01:39;7.95;;;7.15;;
9657;SDS011;4867;48.112;11.622;2023-06-19T11:04:09;7.85;;;7.15;;
9657;SDS011;4867;48.112;11.622;2023-06-19T11:06:37;7.80;;;7.20;;
9657;SDS011;4867;48.112;11.622;2023-06-19T11:09:06;7.65;;;7.05;;
9657;SDS011;4867;48.112;11.622;2023-06-19T11:11:38;7.45;;;6.85;;
9657;SDS011;4867;48.112;11.622;2023-06-19T11:14:09;10.05;;;7.13;;
9657;SDS011;4867;48.112;11.622;2023-06-19T11:16:40;7.82;;;7.07;;
9657;SDS011;4867;48.112;11.622;2023-06-19T11:19:13;7.68;;;6.80;;
9657;SDS011;4867;48.112;11.622;2023-06-19T11:21:44;8.27;;;7.47;;
9657;SDS011;4867;48.112;11.622;2023-06-19T11:24:13;7.68;;;6.90;;
9657;SDS011;4867;48.112;11.622;2023-06-19T11:26:42;7.72;;;7.05;;
9657;SDS011;4867;48.112;11.622;2023-06-19T11:29:16;8.07;;;7.10;;
9657;SDS011;4867;48.112;11.622;2023-06-19T11:31:49;7.85;;;7.20;;
9657;SDS011;4867;48.112;11.622;2023-06-19T11:34:17;7.07;;;6.57;;
9657;SDS011;4867;48.112;11.622;2023-06-19T11:36:50;6.55;;;5.95;;
9657;SDS011;4867;48.112;11.622;2023-06-19T11:39:17;6.78;;;5.07;;
9657;SDS011;4867;48.112;11.622;2023-06-19T11:41:45;5.53;;;4.97;;
9657;SDS011;4867;48.112;11.622;2023-06-19T11:44:13;5.32;;;4.93;;
9657;SDS011;4867;48.112;11.622;2023-06-19T11:46:41;5.43;;;5.03;;
9657;SDS011;4867;48.112;11.622;2023-06-19T11:49:13;5.00;;;4.65;;
9657;SDS011;4867;48.112;11.622;2023-06-19T11:51:46;7.40;;;5.07;;
9657;SDS011;4867;48.112;11.622;2023-06-19T11:54:14;6.32;;;5.38;;
9657;SDS011;4867;48.112;11.622;2023-06-19T11:56:42;5.95;;;5.40;;
9657;SDS011;4867;48.112;11.622;2023-06-19T11:59:09;5.60;;;5.10;;
9657;SDS011;4867;48.112;11.622;2023-06-19T12:01:37;5.63;;;5.22;;
9657;SDS011;4867;48.112;11.622;2023-06-19T12:04:05;6.78;;;5.43;;
9657;SDS011;4867;48.112;11.622;2023-06-19T12:06:33;5.82;;;4.97;;
9657;SDS011;4867;48.112;11.622;2023-06-19T12:09:02;6.22;;;4.93;;
9657;SDS011;4867;48.112;11.622;2023-06-19T12:11:31;5.60;;;5.15;;
9657;SDS011;4867;48.112;11.622;2023-06-19T12:13:59;6.03;;;5.43;;
9657;SDS011;4867;48.112;11.622;2023-06-19T12:16:26;5.07;;;4.68;;
9657;SDS011;4867;48.112;11.622;2023-06-19T12:18:55;6.53;;;5.20;;
9657;SDS011;4867;48.112;11.622;2023-06-19T12:21:22;5.78;;;5.20;;
9657;SDS011;4867;48.112;11.622;2023-06-19T12:24:03;6.43;;;5.88;;
9657;SDS011;4867;48.112;11.622;2023-06-19T12:26:31;5.80;;;5.32;;
9657;SDS011;4867;48.112;11.622;2023-06-19T12:29:03;9.10;;;4.80;;
9657;SDS011;4867;48.112;11.622;2023-06-19T12:31:31;5.75;;;5.35;;
9657;SDS011;4867;48.112;11.622;2023-06-19T12:33:59;5.40;;;4.90;;
9657;SDS011;4867;48.112;11.622;2023-06-19T12:36:39;5.30;;;4.90;;
9657;SDS011;4867;48.112;11.622;2023-06-19T12:39:06;5.95;;;5.40;;
9657;SDS011;4867;48.112;11.622;2023-06-19T12:41:43;6.38;;;5.10;;
9657;SDS011;4867;48.112;11.622;2023-06-19T12:44:10;5.72;;;4.88;;
9657;SDS011;4867;48.112;11.622;2023-06-19T12:46:37;5.70;;;5.20;;
9657;SDS011;4867;48.112;11.622;2023-06-19T12:49:06;7.10;;;5.20;;
9657;SDS011;4867;48.112;11.622;2023-06-19T12:51:33;5.38;;;4.85;;
9657;SDS011;4867;48.112;11.622;2023-06-19T12:54:01;6.60;;;5.93;;
9657;SDS011;4867;48.112;11.622;2023-06-19T12:56:29;6.30;;;5.03;;
9657;SDS011;4867;48.112;11.622;2023-06-19T12:58:56;5.97;;;4.80;;
9657;SDS011;4867;48.112;11.622;2023-06-19T13:01:23;6.18;;;5.68;;
9657;SDS011;4867;48.112;11.622;2023-06-19T13:03:51;6.35;;;5.65;;
9657;SDS011;4867;48.112;11.622;2023-06-19T13:06:18;5.55;;;5.05;;
9657;SDS011;4867;48.112;11.622;2023-06-19T13:08:46;6.60;;;4.72;;
9657;SDS011;4867;48.112;11.622;2023-06-19T13:11:13;5.35;;;4.90;;
9657;SDS011;4867;48.112;11.622;2023-06-19T13:13:40;6.07;;;4.80;;
9657;SDS011;4867;48.112;11.622;2023-06-19T13:16:08;8.98;;;5.50;;
9657;SDS011;4867;48.112;11.622;2023-06-19T13:18:40;5.40;;;4.90;;
9657;SDS011;4867;48.112;11.622;2023-06-19T13:21:07;7.30;;;5.18;;
9657;SDS011;4867;48.112;11.622;2023-06-19T13:23:34;5.53;;;5.13;;
9657;SDS011;4867;48.112;11.622;2023-06-19T13:26:02;5.75;;;5.13;;
9657;SDS011;4867;48.112;11.622;2023-06-19T13:28:29;6.50;;;5.50;;
9657;SDS011;4867;48.112;11.622;2023-06-19T13:30:56;5.32;;;4.90;;
9657;SDS011;4867;48.112;11.622;2023-06-19T13:33:24;5.75;;;4.97;;
9657;SDS011;4867;48.112;11.622;2023-06-19T13:35:52;5.38;;;4.97;;
9657;SDS011;4867;48.112;11.622;2023-06-19T13:38:19;5.93;;;5.40;;
9657;SDS011;4867;48.112;11.622;2023-06-19T13:40:48;5.70;;;5.30;;
9657;SDS011;4867;48.112;11.622;2023-06-19T13:43:15;5.50;;;4.93;;
9657;SDS011;4867;48.112;11.622;2023-06-19T13:45:43;6.82;;;6.20;;
9657;SDS011;4867;48.112;11.622;2023-06-19T13:48:10;5.85;;;5.35;;
9657;SDS011;4867;48.112;11.622;2023-06-19T13:50:37;5.95;;;5.45;;
9657;SDS011;4867;48.112;11.622;2023-06-19T13:53:05;5.55;;;5.05;;
9657;SDS011;4867;48.112;11.622;2023-06-19T13:55:32;7.18;;;6.63;;
9657;SDS011;4867;48.112;11.622;2023-06-19T13:57:59;6.35;;;5.85;;
9657;SDS011;4867;48.112;11.622;2023-06-19T14:00:26;7.57;;;5.80;;
9657;SDS011;4867;48.112;11.622;2023-06-19T14:02:54;7.40;;;5.70;;
9657;SDS011;4867;48.112;11.622;2023-06-19T14:05:21;5.25;;;4.85;;
9657;SDS011;4867;48.112;11.622;2023-06-19T14:07:49;5.38;;;4.88;;
9657;SDS011;4867;48.112;11.622;2023-06-19T14:10:16;5.35;;;4.95;;
9657;SDS011;4867;48.112;11.622;2023-06-19T14:12:43;6.43;;;5.82;;
9657;SDS011;4867;48.112;11.622;2023-06-19T14:15:11;7.07;;;5.22;;
9657;SDS011;4867;48.112;11.622;2023-06-19T14:17:38;5.68;;;5.25;;
9657;SDS011;4867;48.112;11.622;2023-06-19T14:20:10;4.97;;;4.68;;
9657;SDS011;4867;48.112;11.622;2023-06-19T14:22:38;5.53;;;5.03;;
9657;SDS011;4867;48.112;11.622;2023-06-19T14:25:06;9.57;;;5.75;;
9657;SDS011;4867;48.112;11.622;2023-06-19T14:27:33;9.15;;;5.82;;
9657;SDS011;4867;48.112;11.622;2023-06-19T14:30:01;6.50;;;5.85;;
9657;SDS011;4867;48.112;11.622;2023-06-19T14:32:28;5.78;;;5.28;;
9657;SDS011;4867;48.112;11.622;2023-06-19T14:34:55;5.45;;;4.95;;
9657;SDS011;4867;48.112;11.622;2023-06-19T14:37:22;5.78;;;5.15;;
9657;SDS011;4867;48.112;11.622;2023-06-19T14:39:50;5.53;;;5.13;;
9657;SDS011;4867;48.112;11.622;2023-06-19T14:42:17;6.13;;;5.43;;
9657;SDS011;4867;48.112;11.622;2023-06-19T14:44:45;8.55;;;5.47;;
9657;SDS011;4867;48.112;11.622;2023-06-19T14:47:12;5.50;;;5.00;;
9657;SDS011;4867;48.112;11.622;2023-06-19T14:49:39;5.50;;;5.00;;
9657;SDS011;4867;48.112;11.622;2023-06-19T14:52:07;5.90;;;5.40;;
9657;SDS011;4867;48.112;11.622;2023-06-19T14:54:34;7.75;;;5.20;;
9657;SDS011;4867;48.112;11.622;2023-06-19T14:57:02;6.28;;;5.13;;
9657;SDS011;4867;48.112;11.622;2023-06-19T14:59:30;5.82;;;5.10;;
9657;SDS011;4867;48.112;11.622;2023-06-19T15:01:57;5.95;;;5.35;;
9657;SDS011;4867;48.112;11.622;2023-06-19T15:04:25;6.00;;;5.50;;
9657;SDS011;4867;48.112;11.622;2023-06-19T15:06:52;5.93;;;5.25;;